Time;durP1;ratioP1;P1;durP2;ratioP2;P2;SDS_P1;SDS_P2;PMS_P1;PMS_P2;Temp;Humidity;BMP_temperature;BMP_pressure;BME280_temperature;BME280_humidity;BME280_pressure;Samples;Min_cycle;Max_cycle;Signal;HPM_P1;HPM_P2
2022/05/02 00:00:39;;;;;;;15.52;8.40;;;;;;;9.62;42.20;99644.56;4999540;28;20041;-69
2022/05/02 00:03:04;;;;;;;19.85;8.57;;;;;;;9.61;42.55;99642.84;5016787;28;20041;-69
2022/05/02 00:05:29;;;;;;;15.10;8.43;;;;;;;9.58;42.71;99642.22;5016442;28;20068;-70
2022/05/02 00:07:53;;;;;;;16.52;7.80;;;;;;;9.57;42.02;99646.69;4999337;28;20087;-69
2022/05/02 00:10:18;;;;;;;15.73;8.18;;;;;;;9.55;41.95;99645.94;5017515;28;20095;-67
2022/05/02 00:12:43;;;;;;;13.32;8.73;;;;;;;9.54;42.28;99638.06;5016340;28;20507;-67
2022/05/02 00:15:08;;;;;;;19.15;8.98;;;;;;;9.52;42.30;99643.47;4998259;28;20068;-67
2022/05/02 00:20:17;;;;;;;15.85;8.52;;;;;;;9.47;42.47;99632.31;5020451;28;20044;-69
2022/05/02 00:22:42;;;;;;;15.65;8.80;;;;;;;9.41;42.46;99630.88;5002138;28;20411;-65
2022/05/02 00:25:08;;;;;;;19.05;8.10;;;;;;;9.37;42.38;99631.19;5000338;28;20478;-64
2022/05/02 00:27:33;;;;;;;16.42;7.60;;;;;;;9.29;42.72;99630.84;5017956;28;20082;-64
2022/05/02 00:29:58;;;;;;;14.13;8.13;;;;;;;9.25;42.70;99632.88;5000416;28;20048;-65
2022/05/02 00:32:22;;;;;;;17.17;8.13;;;;;;;9.22;42.62;99619.78;4984083;28;20052;-66
2022/05/02 00:34:47;;;;;;;11.82;7.57;;;;;;;9.21;43.47;99622.53;4983336;28;20102;-66
2022/05/02 00:37:14;;;;;;;16.02;8.65;;;;;;;9.20;43.30;99624.34;4999457;28;20048;-64
2022/05/02 00:39:39;;;;;;;17.35;8.50;;;;;;;9.15;43.11;99625.56;5015748;28;20069;-66
2022/05/02 00:42:04;;;;;;;18.10;8.63;;;;;;;9.10;43.57;99634.72;5017233;28;20072;-64
2022/05/02 00:44:29;;;;;;;16.17;8.55;;;;;;;9.07;43.68;99621.63;5016227;28;20059;-68
2022/05/02 00:46:53;;;;;;;15.10;7.78;;;;;;;9.05;42.99;99626.19;4999273;28;20033;-67
2022/05/02 00:49:18;;;;;;;16.42;8.98;;;;;;;9.03;42.81;99621.91;5017500;28;20040;-66
2022/05/02 00:51:43;;;;;;;14.10;7.97;;;;;;;8.99;43.12;99623.94;4999374;28;20080;-67
2022/05/02 00:54:07;;;;;;;12.85;7.68;;;;;;;8.96;43.77;99626.78;5016947;28;20102;-68
2022/05/02 00:56:32;;;;;;;12.10;7.97;;;;;;;8.92;43.58;99624.41;4982665;28;20044;-69
2022/05/02 00:58:57;;;;;;;16.92;8.77;;;;;;;8.88;43.64;99625.59;5016790;28;20106;-68
2022/05/02 01:01:22;;;;;;;16.23;8.40;;;;;;;8.84;44.23;99627.59;4999228;28;20040;-67
2022/05/02 01:03:47;;;;;;;21.17;8.73;;;;;;;8.77;43.87;99628.09;5015197;28;20045;-66
2022/05/02 01:08:55;;;;;;;14.52;8.45;;;;;;;8.66;44.50;99618.16;5016936;28;20495;-67
2022/05/02 01:11:20;;;;;;;15.90;8.13;;;;;;;8.61;45.33;99614.91;4998754;28;20072;-65
2022/05/02 01:13:47;;;;;;;17.73;8.38;;;;;;;8.56;44.69;99622.34;5017480;28;20095;-65
2022/05/02 01:16:13;;;;;;;19.30;8.90;;;;;;;8.51;45.04;99619.13;4998743;28;20442;-69
2022/05/02 01:18:38;;;;;;;17.27;8.75;;;;;;;8.49;45.56;99618.34;5015153;28;20098;-67
2022/05/02 01:21:15;;;;;;;16.25;8.10;;;;;;;8.57;45.26;99622.25;4996855;28;20399;-67
2022/05/02 01:23:41;;;;;;;12.57;8.00;;;;;;;8.57;45.65;99624.91;5015399;28;20041;-68
2022/05/02 01:26:06;;;;;;;14.13;8.48;;;;;;;8.60;45.08;99629.16;5013523;28;20144;-67
2022/05/02 01:28:31;;;;;;;18.80;8.82;;;;;;;8.64;44.78;99630.69;5014879;28;20136;-66
2022/05/02 01:30:57;;;;;;;13.40;7.63;;;;;;;8.66;44.89;99632.28;4997306;28;20044;-66
2022/05/02 01:33:22;;;;;;;18.77;9.15;;;;;;;8.69;46.03;99629.41;5014816;28;20093;-68
2022/05/02 01:35:46;;;;;;;16.65;8.70;;;;;;;8.72;45.35;99631.03;5015125;28;20084;-72
2022/05/02 01:38:12;;;;;;;20.38;8.65;;;;;;;8.73;45.30;99632.75;4997041;28;20099;-71
2022/05/02 01:40:37;;;;;;;21.00;8.85;;;;;;;8.69;45.63;99628.59;4997103;28;20041;-74
2022/05/02 01:43:02;;;;;;;18.52;8.52;;;;;;;8.68;45.61;99627.75;5014755;28;20052;-71
2022/05/02 01:45:27;;;;;;;21.58;9.52;;;;;;;8.69;45.86;99628.59;5012959;28;20037;-71
2022/05/02 01:47:51;;;;;;;20.13;8.38;;;;;;;8.69;45.61;99623.28;4997588;28;20041;-70
2022/05/02 01:50:16;;;;;;;19.33;8.82;;;;;;;8.71;46.00;99630.19;4981060;28;20098;-70
2022/05/02 01:52:41;;;;;;;20.88;9.55;;;;;;;8.71;46.03;99626.66;5014847;28;20139;-69
2022/05/02 01:55:06;;;;;;;24.02;9.20;;;;;;;8.68;46.31;99637.50;4997303;28;20047;-70
2022/05/02 01:57:31;;;;;;;24.50;10.07;;;;;;;8.67;46.06;99635.81;4978641;28;20408;-70
2022/05/02 01:59:55;;;;;;;18.17;8.73;;;;;;;8.69;46.63;99639.22;5014587;28;20440;-70
2022/05/02 02:02:20;;;;;;;14.73;8.77;;;;;;;8.71;45.83;99639.94;4980766;28;20048;-71
2022/05/02 02:07:28;;;;;;;16.30;8.52;;;;;;;8.76;46.05;99640.53;5010235;28;20392;-71
2022/05/02 02:09:53;;;;;;;14.88;8.18;;;;;;;8.79;45.96;99639.47;5014380;28;20732;-72
2022/05/02 02:12:17;;;;;;;16.88;9.13;;;;;;;8.79;45.56;99637.69;5013173;28;20040;-71
2022/05/02 02:14:42;;;;;;;15.60;8.50;;;;;;;8.74;45.36;99631.78;5014130;28;20075;-72
2022/05/02 02:17:07;;;;;;;19.23;8.98;;;;;;;8.75;45.51;99649.44;5012387;28;20082;-71
2022/05/02 02:19:32;;;;;;;32.83;10.63;;;;;;;8.73;45.67;99640.72;5015258;28;20115;-71
2022/05/02 02:22:16;;;;;;;17.88;9.07;;;;;;;8.68;45.78;99645.50;5016246;28;20049;-72
2022/05/02 02:24:40;;;;;;;16.38;8.35;;;;;;;8.72;46.19;99633.69;5012878;28;20095;-71
2022/05/02 02:27:05;;;;;;;17.80;9.60;;;;;;;8.76;45.82;99637.00;4981013;28;20033;-71
2022/05/02 02:29:30;;;;;;;16.90;8.65;;;;;;;8.79;46.44;99637.69;5015836;28;20040;-72
2022/05/02 02:31:55;;;;;;;17.80;9.77;;;;;;;8.83;45.88;99638.31;4999036;28;20045;-71
2022/05/02 02:34:20;;;;;;;18.30;10.13;;;;;;;8.82;45.84;99642.78;5015902;28;20063;-70
2022/05/02 02:36:44;;;;;;;15.93;9.68;;;;;;;8.84;45.46;99643.53;5016104;28;20085;-72
2022/05/02 02:39:09;;;;;;;19.60;10.18;;;;;;;8.88;46.00;99645.06;5015887;28;20142;-71
2022/05/02 02:41:34;;;;;;;13.85;8.85;;;;;;;8.90;45.44;99643.16;4997019;28;20033;-72
2022/05/02 02:43:58;;;;;;;16.58;10.45;;;;;;;8.94;45.91;99636.66;4996601;28;20066;-71
2022/05/02 02:46:23;;;;;;;19.17;10.40;;;;;;;8.97;45.53;99636.47;5012784;28;20179;-70
2022/05/02 02:48:48;;;;;;;17.98;9.02;;;;;;;9.00;45.59;99643.41;5014979;28;20518;-67
2022/05/02 02:51:12;;;;;;;16.70;8.95;;;;;;;9.01;45.89;99645.97;4997193;28;20419;-70
2022/05/02 02:53:37;;;;;;;17.67;9.10;;;;;;;9.04;45.43;99643.09;5014465;28;20868;-65
2022/05/02 02:56:02;;;;;;;13.30;9.02;;;;;;;9.07;46.05;99647.38;5013504;28;20052;-70
2022/05/02 02:58:27;;;;;;;14.70;8.77;;;;;;;9.10;45.75;99653.34;5018603;28;20127;-65
2022/05/02 03:00:52;;;;;;;21.98;9.45;;;;;;;9.14;45.67;99650.50;5018307;28;20040;-68
2022/05/02 03:03:17;;;;;;;16.55;9.23;;;;;;;9.18;45.74;99651.97;5034038;28;20036;-66
2022/05/02 03:08:25;;;;;;;21.58;9.52;;;;;;;9.26;46.17;99639.03;5006241;28;20036;-66
2022/05/02 03:10:51;;;;;;;16.23;9.32;;;;;;;9.30;46.12;99641.38;5040344;28;20070;-67
2022/05/02 03:13:16;;;;;;;20.08;9.55;;;;;;;9.36;45.68;99650.78;5038860;28;20758;-65
2022/05/02 03:15:41;;;;;;;15.65;9.57;;;;;;;9.40;45.24;99652.28;5022977;28;20781;-65
2022/05/02 03:18:06;;;;;;;14.45;8.00;;;;;;;9.44;45.25;99649.31;5040110;28;20040;-65
2022/05/02 03:20:30;;;;;;;11.82;8.02;;;;;;;9.44;45.14;99644.00;5039376;28;20099;-68
2022/05/02 03:22:55;;;;;;;10.05;7.30;;;;;;;9.46;44.85;99649.22;5036129;28;20044;-66
2022/05/02 03:25:20;;;;;;;13.80;8.27;;;;;;;9.41;45.17;99646.84;5000254;28;20101;-66
2022/05/02 03:27:45;;;;;;;16.45;7.95;;;;;;;9.34;45.60;99645.56;4997245;28;20029;-65
2022/05/02 03:30:10;;;;;;;15.48;8.63;;;;;;;9.29;45.83;99645.00;5004159;28;20052;-66
2022/05/02 03:32:34;;;;;;;13.93;7.93;;;;;;;9.31;45.56;99644.91;5007853;28;20036;-67
2022/05/02 03:35:00;;;;;;;20.08;9.52;;;;;;;9.34;45.33;99653.53;5025966;28;20071;-66
2022/05/02 03:37:24;;;;;;;18.13;8.35;;;;;;;9.39;45.45;99650.56;5024188;28;20100;-65
2022/05/02 03:39:49;;;;;;;14.10;7.60;;;;;;;9.45;45.22;99656.34;5006513;28;20072;-65
2022/05/02 03:42:14;;;;;;;19.88;8.88;;;;;;;9.52;44.74;99656.78;5024036;28;20103;-65
2022/05/02 03:44:39;;;;;;;14.77;8.43;;;;;;;9.63;44.67;99661.38;5021494;28;20147;-65
2022/05/02 03:47:04;;;;;;;11.85;7.43;;;;;;;9.74;44.61;99654.38;5000620;28;20033;-66
2022/05/02 03:49:29;;;;;;;17.25;8.25;;;;;;;9.89;44.79;99659.63;4983833;28;20057;-66
2022/05/02 03:51:53;;;;;;;15.05;7.82;;;;;;;10.02;43.83;99655.16;5018101;28;20057;-65
2022/05/02 03:54:18;;;;;;;15.55;8.75;;;;;;;10.15;43.77;99666.69;5018028;28;20514;-66
2022/05/02 03:56:43;;;;;;;13.43;7.60;;;;;;;10.24;43.89;99654.56;5006593;28;20564;-66
2022/05/02 03:59:08;;;;;;;17.15;7.88;;;;;;;10.33;43.30;99665.41;5006579;28;20047;-67
2022/05/02 04:01:36;;;;;;;19.13;8.48;;;;;;;10.41;43.28;99668.38;5018100;28;20037;-66
2022/05/02 04:04:01;;;;;;;14.02;8.43;;;;;;;10.46;43.23;99660.94;5016816;28;20044;-65
2022/05/02 04:06:25;;;;;;;16.45;8.63;;;;;;;10.55;43.67;99670.09;5000506;28;20051;-65
2022/05/02 04:08:50;;;;;;;14.98;8.13;;;;;;;10.63;43.20;99667.72;5016576;28;20053;-65
2022/05/02 04:11:15;;;;;;;20.30;7.82;;;;;;;10.69;42.70;99666.44;5000241;28;20403;-66
2022/05/02 04:13:40;;;;;;;14.35;7.32;;;;;;;10.75;42.79;99672.19;5016433;28;20388;-66
2022/05/02 04:16:04;;;;;;;14.80;8.00;;;;;;;10.85;42.80;99672.38;4999813;28;20149;-66
2022/05/02 04:18:29;;;;;;;17.58;8.13;;;;;;;10.90;42.35;99664.91;4999647;28;20075;-65
2022/05/02 04:20:54;;;;;;;14.60;8.52;;;;;;;10.90;42.60;99673.75;5018273;28;20068;-66
2022/05/02 04:23:19;;;;;;;11.63;7.55;;;;;;;10.96;42.30;99672.44;4999836;28;20491;-66
2022/05/02 04:25:43;;;;;;;13.32;8.02;;;;;;;11.01;41.91;99670.31;5017748;28;20045;-65
2022/05/02 04:28:08;;;;;;;10.82;7.63;;;;;;;11.10;42.09;99676.78;5018207;28;20123;-65
2022/05/02 04:30:34;;;;;;;12.85;7.88;;;;;;;11.20;42.21;99673.31;5005968;28;20095;-66
2022/05/02 04:32:58;;;;;;;17.17;7.72;;;;;;;11.33;41.79;99683.09;5006784;28;20492;-65
2022/05/02 04:35:23;;;;;;;11.07;7.85;;;;;;;11.46;41.12;99679.41;5018187;28;20041;-66
2022/05/02 04:37:48;;;;;;;22.83;8.32;;;;;;;11.60;41.08;99667.69;5017466;28;20415;-65
2022/05/02 04:40:13;;;;;;;13.02;8.10;;;;;;;11.73;40.54;99671.16;5016122;28;20040;-66
2022/05/02 04:42:38;;;;;;;13.20;8.82;;;;;;;11.88;40.19;99664.66;5014928;28;20090;-65
2022/05/02 04:45:03;;;;;;;13.95;7.45;;;;;;;11.98;40.24;99660.31;5017221;28;20037;-66
2022/05/02 04:47:28;;;;;;;18.02;7.72;;;;;;;12.10;40.29;99654.97;5017353;28;20045;-66
2022/05/02 04:49:52;;;;;;;15.82;8.27;;;;;;;12.21;39.83;99663.03;5017328;28;20086;-66
2022/05/02 04:52:17;;;;;;;15.73;8.27;;;;;;;12.21;39.38;99660.34;5017130;28;20543;-65
2022/05/02 04:54:42;;;;;;;12.15;7.45;;;;;;;12.24;39.85;99670.81;4999179;28;20499;-68
2022/05/02 04:57:07;;;;;;;13.68;6.95;;;;;;;12.36;39.22;99661.84;5016869;28;20052;-66
2022/05/02 04:59:32;;;;;;;15.13;7.43;;;;;;;12.54;38.71;99671.06;5015830;28;20041;-66
2022/05/02 05:01:58;;;;;;;11.10;7.05;;;;;;;12.76;38.10;99674.72;4999143;28;20052;-68
2022/05/02 05:04:22;;;;;;;13.77;6.15;;;;;;;12.96;38.06;99658.78;5016874;28;20040;-68
2022/05/02 05:06:47;;;;;;;11.90;7.20;;;;;;;13.14;37.64;99658.25;5018046;28;20098;-67
2022/05/02 05:09:12;;;;;;;13.57;6.95;;;;;;;13.31;37.72;99663.97;5021372;28;20393;-67
2022/05/02 05:11:39;;;;;;;11.02;6.60;;;;;;;13.58;37.36;99655.44;5017289;28;20039;-66
2022/05/02 05:17:11;;;;;;;22.48;8.55;;;;;;;14.12;35.42;99663.31;5016856;28;20051;-66
2022/05/02 05:19:42;;;;;;;15.63;9.05;;;;;;;14.15;35.15;99662.19;4999239;28;20053;-66
2022/05/02 05:22:28;;;;;;;25.85;10.90;;;;;;;14.07;34.68;99670.06;5020443;28;20041;-67
2022/05/02 05:25:02;;;;;;;22.55;9.93;;;;;;;14.26;35.00;99662.13;5017142;28;20507;-67
2022/05/02 05:27:39;;;;;;;13.38;7.97;;;;;;;14.73;33.62;99671.44;5017399;28;20047;-66
2022/05/02 05:30:07;;;;;;;9.93;6.57;;;;;;;15.34;33.19;99663.28;5016920;28;20044;-66
2022/05/02 05:32:50;;;;;;;10.02;6.78;;;;;;;16.03;32.28;99665.81;5016936;28;20059;-68
2022/05/02 05:35:23;;;;;;;10.98;6.18;;;;;;;16.77;31.92;99660.56;5016350;28;20055;-67
2022/05/02 05:38:03;;;;;;;9.43;6.30;;;;;;;17.51;30.09;99659.53;4998506;28;20128;-67
2022/05/02 05:40:29;;;;;;;9.57;6.38;;;;;;;18.29;27.83;99657.84;5016312;28;20051;-67
2022/05/02 05:43:10;;;;;;;9.40;5.65;;;;;;;19.00;25.03;99661.16;5016232;28;20076;-67
2022/05/02 05:45:43;;;;;;;8.73;4.43;;;;;;;19.56;25.32;99660.50;5015090;28;20056;-67
2022/05/02 05:48:33;;;;;;;9.77;4.50;;;;;;;20.10;25.22;99657.31;4981539;28;20447;-68
2022/05/02 05:51:40;;;;;;;5.63;3.97;;;;;;;20.74;23.98;99658.25;5016181;28;20040;-67
2022/05/02 05:54:11;;;;;;;8.23;4.50;;;;;;;21.43;22.38;99646.63;4954011;28;20149;-68
2022/05/02 05:56:38;;;;;;;6.70;4.43;;;;;;;22.14;21.57;99653.53;4954719;28;20057;-67
2022/05/02 05:59:32;;;;;;;5.25;4.35;;;;;;;22.84;20.05;99657.78;4954722;28;20066;-68
2022/05/02 06:02:17;;;;;;;8.23;4.68;;;;;;;23.43;20.95;99661.28;4938890;28;20125;-67
2022/05/02 06:04:43;;;;;;;7.18;4.25;;;;;;;24.10;19.19;99652.75;4954799;28;20057;-67
2022/05/02 06:07:08;;;;;;;5.50;3.95;;;;;;;24.69;18.65;99650.53;4954497;28;20045;-67
2022/05/02 06:09:36;;;;;;;11.45;4.03;;;;;;;25.31;18.20;99646.84;4955499;28;20041;-68
2022/05/02 06:12:04;;;;;;;5.35;3.78;;;;;;;25.88;17.10;99649.13;4955190;28;20054;-68
2022/05/02 06:14:34;;;;;;;4.90;3.80;;;;;;;26.55;16.31;99647.25;4954635;28;20061;-67
2022/05/02 06:19:59;;;;;;;4.53;3.53;;;;;;;27.72;15.31;99653.41;4899879;29;20055;-68
2022/05/02 06:22:27;;;;;;;3.03;2.72;;;;;;;28.23;15.00;99641.47;4897472;29;20055;-68
2022/05/02 06:24:55;;;;;;;5.30;3.28;;;;;;;28.86;13.86;99641.31;4889018;29;20485;-68
2022/05/02 06:27:20;;;;;;;5.25;4.10;;;;;;;29.58;13.57;99645.91;4897092;29;20051;-67
2022/05/02 06:29:46;;;;;;;4.68;3.35;;;;;;;30.17;14.02;99644.19;4886222;28;20622;-68
2022/05/02 06:32:12;;;;;;;5.97;3.50;;;;;;;30.66;12.82;99648.44;4934627;28;20090;-68
2022/05/02 06:34:38;;;;;;;6.60;4.00;;;;;;;31.07;12.26;99649.34;4935208;28;20580;-68
2022/05/02 06:37:08;;;;;;;7.10;4.63;;;;;;;31.53;11.44;99650.31;4902362;28;20640;-67
2022/05/02 06:39:45;;;;;;;10.98;6.18;;;;;;;32.04;11.24;99644.72;4934941;28;20521;-68
2022/05/02 06:42:37;;;;;;;11.35;7.40;;;;;;;32.29;11.55;99640.72;4935215;28;20062;-67
2022/05/02 06:45:05;;;;;;;15.80;7.50;;;;;;;32.59;10.98;99638.44;4935145;28;20101;-68
2022/05/02 06:47:53;;;;;;;11.63;6.80;;;;;;;33.00;9.77;99639.06;4934927;28;20085;-68
2022/05/02 06:50:22;;;;;;;9.68;6.80;;;;;;;33.08;10.95;99639.44;4934474;28;20058;-66
2022/05/02 06:53:37;;;;;;;10.82;6.63;;;;;;;33.51;12.01;99641.41;4918184;28;20062;-66
2022/05/02 06:56:09;;;;;;;11.80;6.95;;;;;;;33.26;10.95;99635.56;4919312;28;20054;-66
2022/05/02 06:58:46;;;;;;;18.90;6.93;;;;;;;33.34;9.78;99642.56;4953764;28;20089;-66
2022/05/02 07:01:38;;;;;;;11.00;6.63;;;;;;;33.47;10.01;99639.41;4953474;28;20050;-66
2022/05/02 07:04:36;;;;;;;10.35;6.25;;;;;;;33.91;9.74;99631.03;4954732;28;20042;-64
2022/05/02 07:07:36;;;;;;;9.48;6.63;;;;;;;33.95;8.69;99626.66;4954412;28;20053;-65
2022/05/02 07:10:05;;;;;;;10.35;6.28;;;;;;;33.39;9.20;99628.81;4958670;28;20068;-64
2022/05/02 07:12:34;;;;;;;8.10;5.65;;;;;;;33.53;9.61;99628.13;4938326;28;20046;-66
2022/05/02 07:15:04;;;;;;;8.65;5.43;;;;;;;33.90;9.85;99624.66;4953698;28;20144;-64
2022/05/02 07:17:44;;;;;;;6.55;4.70;;;;;;;32.97;8.76;99628.50;4938206;28;20105;-64
2022/05/02 07:20:16;;;;;;;7.40;4.60;;;;;;;31.97;9.63;99626.63;4955042;28;20120;-63
2022/05/02 07:23:07;;;;;;;6.78;4.50;;;;;;;32.24;9.83;99627.69;4941734;28;20057;-66
2022/05/02 07:25:35;;;;;;;8.35;4.25;;;;;;;33.54;8.94;99620.66;4918233;29;20062;-67
2022/05/02 07:28:27;;;;;;;5.93;4.35;;;;;;;34.01;8.07;99623.66;4900877;29;20081;-66
2022/05/02 07:30:57;;;;;;;4.70;3.90;;;;;;;34.63;8.07;99627.78;4919142;28;20053;-64
2022/05/02 07:33:21;;;;;;;9.00;4.68;;;;;;;35.08;8.13;99621.69;4954577;28;20054;-66
2022/05/02 07:35:49;;;;;;;7.15;4.03;;;;;;;35.78;7.61;99634.97;4953649;28;20053;-65
2022/05/02 07:38:18;;;;;;;4.57;4.10;;;;;;;36.50;7.93;99631.13;4953668;28;20544;-67
2022/05/02 07:41:33;;;;;;;4.40;4.00;;;;;;;36.91;6.81;99628.31;4921097;28;20247;-66
2022/05/02 07:43:35;;;;;;;4.57;4.13;;;;;;;37.71;7.07;99629.91;4930042;28;20058;-67
2022/05/02 07:46:02;;;;;;;5.07;3.97;;;;;;;38.46;6.45;99618.50;4953416;28;20082;-66
2022/05/02 07:48:30;;;;;;;11.55;4.40;;;;;;;38.80;6.44;99630.44;4953202;28;20047;-66
2022/05/02 07:50:57;;;;;;;5.65;3.80;;;;;;;38.67;6.12;99627.50;4953151;28;20145;-65
2022/05/02 07:53:22;;;;;;;4.88;4.00;;;;;;;38.98;6.05;99626.06;4952850;28;20050;-65
2022/05/02 07:55:49;;;;;;;4.68;4.25;;;;;;;39.33;5.77;99632.31;4953151;28;20423;-66
2022/05/02 07:58:15;;;;;;;4.30;4.00;;;;;;;39.47;5.88;99622.13;4953113;28;20391;-66
2022/05/02 08:00:40;;;;;;;5.72;4.70;;;;;;;39.68;5.97;99622.66;4953322;28;20050;-66
2022/05/02 08:03:05;;;;;;;5.07;4.68;;;;;;;39.68;5.64;99620.72;4962003;28;20045;-65
2022/05/02 08:05:30;;;;;;;5.30;4.43;;;;;;;40.14;5.30;99625.59;5015254;28;20049;-66
2022/05/02 08:08:11;;;;;;;5.72;5.22;;;;;;;41.38;5.59;99629.44;5014582;28;20564;-67
2022/05/02 08:11:08;;;;;;;4.57;4.28;;;;;;;41.58;5.38;99621.44;5014302;28;20503;-66
2022/05/02 08:14:13;;;;;;;4.30;4.00;;;;;;;38.88;6.47;99609.44;5012959;28;20052;-65
2022/05/02 08:16:48;;;;;;;5.25;4.20;;;;;;;34.67;7.28;99602.03;5004950;28;20056;-65
2022/05/02 08:19:18;;;;;;;6.88;3.70;;;;;;;31.35;8.94;99594.34;4999893;28;20044;-65
2022/05/02 08:27:15;;;;;;;3.92;3.53;;;;;;;29.49;9.58;99597.84;4983273;28;20059;-64
2022/05/02 08:28:13;;;;;;;3.55;3.25;;;;;;;31.17;9.99;99588.16;5017810;28;20052;-64
2022/05/02 08:31:19;;;;;;;4.88;3.60;;;;;;;33.90;7.57;99585.94;5017421;28;20045;-63
2022/05/02 08:34:01;;;;;;;4.88;4.03;;;;;;;35.22;6.93;99592.34;4956312;28;20053;-63
2022/05/02 08:36:59;;;;;;;4.25;3.85;;;;;;;36.82;6.24;99580.81;4956204;28;20057;-64
2022/05/02 08:39:35;;;;;;;6.20;4.25;;;;;;;37.36;6.26;99588.41;4956307;28;20409;-65
2022/05/02 08:42:49;;;;;;;5.28;4.13;;;;;;;38.83;6.23;99596.38;4955981;28;20108;-64
2022/05/02 08:45:27;;;;;;;5.47;4.45;;;;;;;40.11;4.83;99592.69;4956280;28;20058;-63
2022/05/02 08:48:00;;;;;;;4.95;4.55;;;;;;;40.83;5.53;99581.91;4955934;28;20042;-63
2022/05/02 08:50:59;;;;;;;4.88;4.47;;;;;;;40.76;5.44;99587.06;4955782;28;20042;-63
2022/05/02 08:54:08;;;;;;;4.78;4.28;;;;;;;37.92;6.08;99586.09;4939441;28;20054;-64
2022/05/02 08:56:48;;;;;;;4.80;4.40;;;;;;;36.12;6.96;99578.97;4936831;28;20094;-64
2022/05/02 08:59:41;;;;;;;4.10;3.80;;;;;;;36.63;6.94;99554.72;4936489;28;20518;-63
2022/05/02 09:02:31;;;;;;;8.18;4.28;;;;;;;37.24;6.31;99569.28;4936668;28;20059;-64
2022/05/02 09:05:14;;;;;;;6.93;3.75;;;;;;;37.04;6.44;99561.81;4936623;28;20047;-65
2022/05/02 09:07:55;;;;;;;3.88;3.50;;;;;;;34.89;7.38;99561.19;4965066;28;20550;-64
2022/05/02 09:10:32;;;;;;;3.85;3.50;;;;;;;33.28;8.35;99541.34;4994634;28;20060;-64
2022/05/02 09:13:28;;;;;;;4.05;3.40;;;;;;;33.03;8.52;99531.66;4994842;28;20595;-66
2022/05/02 09:16:26;;;;;;;4.00;3.65;;;;;;;35.21;8.05;99535.25;4978132;28;20784;-66
2022/05/02 09:19:21;;;;;;;4.28;3.92;;;;;;;37.51;7.02;99532.66;4994822;28;20087;-67
2022/05/02 09:22:07;;;;;;;4.80;4.40;;;;;;;39.55;5.90;99554.47;4994862;28;20045;-66
2022/05/02 09:24:57;;;;;;;5.03;4.53;;;;;;;40.79;4.77;99544.50;4994508;28;20075;-65
2022/05/02 09:27:36;;;;;;;4.35;4.07;;;;;;;40.63;5.38;99530.81;4994616;28;20050;-66
2022/05/02 09:30:19;;;;;;;4.80;4.40;;;;;;;38.74;5.55;99524.88;4994382;28;20520;-66
2022/05/02 09:32:46;;;;;;;4.60;3.95;;;;;;;36.16;6.30;99524.53;4985094;28;20049;-65
2022/05/02 09:35:16;;;;;;;5.13;4.13;;;;;;;34.58;7.25;99521.41;4998106;28;20045;-65
2022/05/02 09:37:54;;;;;;;5.30;3.92;;;;;;;34.58;7.72;99517.81;4998038;28;20055;-66
2022/05/02 09:40:29;;;;;;;5.05;4.20;;;;;;;36.51;7.09;99515.31;4998546;28;20059;-64
2022/05/02 09:42:54;;;;;;;4.78;4.38;;;;;;;38.69;6.15;99509.06;4982123;28;20060;-65
2022/05/02 09:51:53;;;;;;;6.65;5.35;;;;;;;41.41;5.18;99514.09;4998341;28;20121;-65
2022/05/02 09:57:32;;;;;;;6.45;5.97;;;;;;;44.19;4.53;99515.53;5016055;28;20571;-65
2022/05/02 10:02:49;;;;;;;8.50;6.00;;;;;;;41.83;4.88;99502.41;4998237;28;20044;-66
2022/05/02 10:05:39;;;;;;;6.30;5.80;;;;;;;40.31;4.89;99497.38;4998199;28;20457;-68
2022/05/02 10:08:33;;;;;;;6.53;5.63;;;;;;;39.18;5.91;99499.47;4998017;28;20527;-66
2022/05/02 10:11:23;;;;;;;5.65;5.15;;;;;;;39.46;5.56;99492.97;4967859;28;20080;-66
2022/05/02 10:13:59;;;;;;;6.05;5.40;;;;;;;40.35;5.02;99487.25;4946878;28;20552;-67
2022/05/02 10:16:57;;;;;;;6.60;6.00;;;;;;;42.38;4.70;99483.31;4955502;28;20619;-66
2022/05/02 10:19:43;;;;;;;6.90;6.10;;;;;;;41.64;4.40;99479.41;4955074;28;20125;-66
2022/05/02 10:22:24;;;;;;;7.40;5.57;;;;;;;39.16;5.55;99477.50;4959881;28;20129;-66
2022/05/02 10:25:08;;;;;;;5.72;4.72;;;;;;;36.25;6.71;99468.19;4962417;28;20054;-65
2022/05/02 10:27:41;;;;;;;6.35;5.22;;;;;;;33.05;7.54;99448.53;4959865;28;20049;-68
2022/05/02 10:30:13;;;;;;;5.25;4.22;;;;;;;31.11;8.94;99445.94;4958953;28;20053;-67
2022/05/02 10:32:44;;;;;;;5.55;4.43;;;;;;;29.36;9.65;99452.44;4940386;28;20034;-67
2022/05/02 10:35:15;;;;;;;5.30;3.95;;;;;;;28.39;10.76;99443.47;4955459;28;20062;-67
2022/05/02 10:37:49;;;;;;;4.22;3.70;;;;;;;27.15;10.79;99437.25;4955586;28;20050;-67
2022/05/02 10:40:17;;;;;;;5.28;3.75;;;;;;;26.29;11.40;99441.28;4938418;28;20050;-67
2022/05/02 10:42:46;;;;;;;5.05;3.78;;;;;;;24.62;12.03;99439.72;4954785;28;20046;-69
2022/05/02 10:45:11;;;;;;;4.55;3.65;;;;;;;23.84;12.70;99427.38;4954690;28;20050;-67
2022/05/02 10:47:41;;;;;;;7.32;4.25;;;;;;;23.22;13.14;99420.00;4953466;28;20048;-68
2022/05/02 10:50:25;;;;;;;3.70;3.10;;;;;;;23.10;13.91;99410.69;5015251;28;20487;-67
2022/05/02 10:53:13;;;;;;;4.63;3.25;;;;;;;22.98;13.58;99406.81;5015272;28;20566;-67
2022/05/02 10:55:50;;;;;;;6.78;3.70;;;;;;;22.55;13.49;99397.75;5020218;28;20057;-67
2022/05/02 10:58:17;;;;;;;4.20;3.63;;;;;;;22.13;13.56;99399.34;5006941;28;20056;-68
2022/05/02 11:01:06;;;;;;;4.97;3.53;;;;;;;21.85;13.99;99399.16;5025164;28;20040;-68
2022/05/02 11:04:10;;;;;;;5.68;4.07;;;;;;;21.42;14.01;99408.97;5004221;28;20155;-66
2022/05/02 11:07:08;;;;;;;6.57;3.45;;;;;;;20.81;14.49;99397.25;5019987;28;20057;-67
2022/05/02 11:09:52;;;;;;;5.20;3.70;;;;;;;20.37;15.47;99394.34;4961796;28;20049;-68
2022/05/02 11:12:21;;;;;;;5.35;3.42;;;;;;;20.23;15.18;99381.53;4965347;28;20077;-67
2022/05/02 11:15:06;;;;;;;4.88;2.95;;;;;;;20.35;15.40;99373.84;4965848;28;20050;-65
2022/05/02 11:17:33;;;;;;;;;;;;;;;20.84;14.41;99377.94;4963485;28;20097;-66
2022/05/02 11:23:12;;;;;;;3.28;2.65;;;;;;;21.38;14.88;99370.50;4958407;28;20038;-66
2022/05/02 11:26:02;;;;;;;5.40;3.15;;;;;;;21.47;14.83;99367.72;4955100;28;20108;-66
2022/05/02 11:28:38;;;;;;;5.68;3.20;;;;;;;21.10;14.44;99371.28;4954659;28;20050;-66
2022/05/02 11:31:25;;;;;;;4.30;2.80;;;;;;;21.12;14.93;99364.63;4937410;28;20129;-66
2022/05/02 11:34:14;;;;;;;9.25;3.50;;;;;;;20.82;15.43;99366.44;4954527;28;20054;-66
2022/05/02 11:36:51;;;;;;;5.18;3.15;;;;;;;20.64;15.11;99352.38;4954166;28;20090;-66
2022/05/02 11:39:21;;;;;;;11.80;3.55;;;;;;;20.39;15.77;99343.56;4953693;28;20065;-68
2022/05/02 11:41:47;;;;;;;4.18;2.83;;;;;;;20.28;15.31;99354.78;4955229;28;20074;-69
2022/05/02 11:44:13;;;;;;;4.30;3.15;;;;;;;20.13;15.45;99348.41;4922778;28;20039;-70
2022/05/02 11:47:01;;;;;;;6.07;3.20;;;;;;;20.16;15.45;99343.50;4986776;28;20052;-65
2022/05/02 11:49:45;;;;;;;7.50;3.63;;;;;;;19.90;16.40;99327.56;5006069;28;20534;-71
2022/05/02 11:52:14;;;;;;;5.22;3.35;;;;;;;19.88;16.60;99340.44;5015991;28;20528;-72
2022/05/02 11:54:40;;;;;;;4.88;2.85;;;;;;;19.73;16.20;99327.84;5018987;28;20045;-71
2022/05/02 11:57:10;;;;;;;5.32;3.28;;;;;;;19.62;16.19;99331.78;5019280;28;20045;-69
2022/05/02 11:59:56;;;;;;;4.22;2.92;;;;;;;19.53;16.84;99330.09;5000896;28;20045;-68
2022/05/02 12:02:56;;;;;;;4.25;3.00;;;;;;;19.38;17.11;99329.09;5018547;28;20052;-66
2022/05/02 12:05:24;;;;;;;3.80;2.92;;;;;;;19.19;17.20;99331.16;5013892;28;20075;-66
2022/05/02 12:07:54;;;;;;;3.17;2.72;;;;;;;19.28;17.30;99331.16;5000560;28;20072;-67
2022/05/02 12:10:33;;;;;;;6.47;3.22;;;;;;;19.13;16.91;99317.50;4983888;28;20040;-67
2022/05/02 12:12:58;;;;;;;4.18;2.88;;;;;;;18.67;17.61;99316.38;4983752;28;20411;-67
2022/05/02 12:15:24;;;;;;;4.57;2.88;;;;;;;18.53;18.00;99309.75;5000759;28;20037;-66
2022/05/02 12:18:05;;;;;;;3.80;3.10;;;;;;;18.69;17.92;99314.34;5007678;28;20140;-68
2022/05/02 12:20:32;;;;;;;7.68;3.70;;;;;;;18.55;18.23;99312.28;5012843;28;20043;-68
2022/05/02 12:23:02;;;;;;;6.03;3.13;;;;;;;18.58;18.43;99310.13;5032147;28;20071;-66
2022/05/02 12:25:28;;;;;;;6.70;3.40;;;;;;;18.64;18.20;99304.03;5013789;28;20045;-65
2022/05/02 12:27:53;;;;;;;6.22;3.80;;;;;;;18.66;18.10;99307.44;4996455;28;20041;-67
2022/05/02 12:30:19;;;;;;;4.10;2.97;;;;;;;18.75;18.06;99303.69;5023688;28;20412;-67
2022/05/02 12:32:45;;;;;;;4.15;3.10;;;;;;;18.74;17.93;99299.31;5003567;28;20118;-66